TAF Text Data
IDs:
Format:
Raw Decoded Include METAR

Data at: 0127 UTC 29 May 2022

KBHM 282328Z 2900/2924 VRB05KT P6SM FEW250